createdAt,value
2018-07-11T00:00:21.644Z,16.20
2018-07-11T00:02:50.044Z,16.30
2018-07-11T00:05:18.522Z,16.20
2018-07-11T00:07:46.933Z,16.20
2018-07-11T00:10:15.297Z,16.20
2018-07-11T00:12:43.678Z,16.20
2018-07-11T00:15:12.130Z,16.20
2018-07-11T00:17:40.554Z,16.10
2018-07-11T00:20:09.062Z,16.10
2018-07-11T00:22:37.537Z,16.00
2018-07-11T00:25:05.966Z,16.10
2018-07-11T00:27:34.425Z,16.00
2018-07-11T00:30:02.890Z,16.00
2018-07-11T00:32:31.376Z,15.90
2018-07-11T00:34:59.855Z,15.90
2018-07-11T00:37:28.335Z,15.90
2018-07-11T00:39:56.749Z,15.90
2018-07-11T00:42:25.846Z,15.90
2018-07-11T00:44:54.297Z,15.80
2018-07-11T00:47:22.786Z,15.70
2018-07-11T00:49:51.256Z,15.60
2018-07-11T00:52:19.782Z,15.50
2018-07-11T00:54:48.254Z,15.50
2018-07-11T00:57:17.858Z,15.50
2018-07-11T00:59:46.252Z,15.50
2018-07-11T01:02:15.133Z,15.40
2018-07-11T01:04:43.546Z,15.30
2018-07-11T01:07:12.060Z,15.30
2018-07-11T01:09:44.879Z,15.20
2018-07-11T01:12:13.361Z,15.20
2018-07-11T01:14:42.049Z,15.20
2018-07-11T01:17:15.753Z,15.10
2018-07-11T01:19:45.024Z,15.10
2018-07-11T01:22:13.479Z,15.00
2018-07-11T01:24:41.872Z,15.00
2018-07-11T01:27:10.361Z,15.00
2018-07-11T01:29:38.837Z,14.90
2018-07-11T01:32:07.250Z,14.80
2018-07-11T01:34:35.626Z,14.80
2018-07-11T01:37:04.059Z,14.70
2018-07-11T01:39:32.532Z,14.70
2018-07-11T01:42:00.970Z,14.70
2018-07-11T01:44:29.425Z,14.60
2018-07-11T01:46:58.469Z,14.70
2018-07-11T01:49:26.902Z,14.60
2018-07-11T01:54:29.353Z,14.60
2018-07-11T01:56:57.795Z,14.50
2018-07-11T01:59:30.926Z,14.50
2018-07-11T02:01:59.429Z,14.50
2018-07-11T02:04:27.880Z,14.50
2018-07-11T02:06:56.551Z,14.50
2018-07-11T02:09:25.013Z,14.40
2018-07-11T02:11:53.549Z,14.40
2018-07-11T02:14:22.008Z,14.30
2018-07-11T02:16:50.450Z,14.30
2018-07-11T02:21:48.612Z,14.30
2018-07-11T02:24:17.085Z,14.30
2018-07-11T02:26:45.477Z,14.30
2018-07-11T02:29:13.902Z,14.20
2018-07-11T02:31:42.342Z,14.20
2018-07-11T02:34:10.960Z,14.20
2018-07-11T02:36:39.464Z,14.20
2018-07-11T02:39:07.904Z,14.20
2018-07-11T02:41:36.464Z,14.10
2018-07-11T02:44:04.904Z,14.10
2018-07-11T02:46:38.697Z,14.00
2018-07-11T02:49:07.715Z,14.00
2018-07-11T02:51:36.161Z,14.00
2018-07-11T02:54:04.613Z,14.00
2018-07-11T02:56:33.035Z,14.00
2018-07-11T02:59:01.493Z,14.00
2018-07-11T03:01:29.895Z,13.90
2018-07-11T03:11:22.562Z,13.70
2018-07-11T03:13:51.005Z,13.70
2018-07-11T03:16:19.418Z,13.80
2018-07-11T03:18:47.880Z,13.70
2018-07-11T03:21:16.368Z,13.70
2018-07-11T03:23:44.837Z,13.60
2018-07-11T03:26:13.257Z,13.70
2018-07-11T03:28:41.630Z,13.60
2018-07-11T03:31:10.047Z,13.60
2018-07-11T03:33:38.433Z,13.60
2018-07-11T03:36:06.933Z,13.60
2018-07-11T03:38:35.430Z,13.60
2018-07-11T03:41:03.947Z,13.60
2018-07-11T03:43:32.345Z,13.60
2018-07-11T03:46:00.727Z,13.60
2018-07-11T03:48:29.167Z,13.60
2018-07-11T03:50:57.794Z,13.50
2018-07-11T03:55:54.347Z,13.60
2018-07-11T03:58:22.780Z,13.50
2018-07-11T04:00:51.158Z,13.50
2018-07-11T04:03:19.582Z,13.50
2018-07-11T04:05:48.021Z,13.50
2018-07-11T04:08:16.402Z,13.50
2018-07-11T04:10:45.087Z,13.50
2018-07-11T04:13:17.523Z,13.50
2018-07-11T04:15:46.104Z,13.50
2018-07-11T04:18:19.351Z,13.50
2018-07-11T04:20:47.727Z,13.50
2018-07-11T04:23:16.258Z,13.50
2018-07-11T04:25:44.641Z,13.50
2018-07-11T04:30:41.365Z,13.60
2018-07-11T04:33:09.978Z,13.60
2018-07-11T04:35:38.481Z,13.60
2018-07-11T04:40:35.070Z,13.70
2018-07-11T04:43:03.563Z,13.80
2018-07-11T04:45:32.548Z,13.80
2018-07-11T04:48:00.989Z,13.90
2018-07-11T04:53:01.462Z,14.00
2018-07-11T04:55:30.987Z,14.10
2018-07-11T04:57:59.406Z,14.10
2018-07-11T05:00:27.804Z,14.20
2018-07-11T05:05:24.466Z,14.30
2018-07-11T05:07:53.194Z,14.40
2018-07-11T05:10:21.838Z,14.40
2018-07-11T05:12:50.389Z,14.50
2018-07-11T05:15:18.802Z,14.50
2018-07-11T05:17:47.194Z,14.60
2018-07-11T05:20:15.642Z,14.70
2018-07-11T05:22:44.176Z,14.70
2018-07-11T05:25:12.672Z,14.80
2018-07-11T05:27:41.095Z,14.90
2018-07-11T05:30:09.550Z,15.20
2018-07-11T05:32:37.935Z,15.20
2018-07-11T05:35:06.529Z,15.20
2018-07-11T05:37:35.049Z,15.30
2018-07-11T05:42:31.695Z,15.30
2018-07-11T05:45:00.106Z,15.40
2018-07-11T05:47:28.491Z,15.50
2018-07-11T05:49:56.985Z,15.60
2018-07-11T05:52:25.405Z,15.70
2018-07-11T05:54:53.808Z,15.70
2018-07-11T05:57:22.329Z,15.80
2018-07-11T05:59:50.785Z,15.90
2018-07-11T06:04:47.304Z,16.30
2018-07-11T06:07:15.727Z,16.50
2018-07-11T06:09:44.118Z,16.70
2018-07-11T06:12:12.509Z,16.80
2018-07-11T06:14:41.034Z,16.90
2018-07-11T06:17:09.429Z,17.10
2018-07-11T06:19:37.850Z,17.20
2018-07-11T06:22:06.410Z,17.30
2018-07-11T06:24:34.922Z,17.50
2018-07-11T06:27:03.347Z,17.60
2018-07-11T06:29:31.793Z,17.80
2018-07-11T06:32:00.206Z,18.00
2018-07-11T06:34:28.594Z,18.20
2018-07-11T06:36:56.996Z,18.40
2018-07-11T06:39:25.737Z,18.80
2018-07-11T06:41:54.105Z,18.80
2018-07-11T06:44:22.656Z,19.00
2018-07-11T06:46:51.070Z,19.20
2018-07-11T06:49:19.510Z,19.50
2018-07-11T06:51:47.883Z,19.70
2018-07-11T06:54:16.361Z,19.60
2018-07-11T06:56:44.822Z,19.60
2018-07-11T06:59:13.312Z,19.60
2018-07-11T07:01:41.748Z,19.70
2018-07-11T07:04:10.209Z,19.90
2018-07-11T07:06:38.616Z,20.00
2018-07-11T07:09:07.370Z,20.20
2018-07-11T07:11:35.821Z,20.40
2018-07-11T07:14:04.256Z,20.60
2018-07-11T07:16:32.787Z,20.80
2018-07-11T07:19:07.738Z,20.80
2018-07-11T07:21:36.168Z,20.80
2018-07-11T07:24:04.577Z,21.00
2018-07-11T07:26:32.993Z,21.20
2018-07-11T07:29:01.453Z,21.50
2018-07-11T07:31:29.869Z,21.70
2018-07-11T07:33:58.428Z,21.80
2018-07-11T07:36:26.826Z,21.60
2018-07-11T07:41:23.289Z,22.40
2018-07-11T07:46:19.969Z,22.50
2018-07-11T07:48:48.407Z,22.80
2018-07-11T07:51:16.950Z,22.90
2018-07-11T07:53:45.425Z,23.20
2018-07-11T07:56:13.890Z,23.00
2018-07-11T07:58:42.359Z,22.70
2018-07-11T08:01:10.810Z,23.00
2018-07-11T08:03:39.237Z,23.50
2018-07-11T08:06:07.737Z,23.50
2018-07-11T08:08:36.164Z,23.40
2018-07-11T08:11:04.709Z,23.50
2018-07-11T08:13:33.145Z,23.70
2018-07-11T08:18:29.760Z,24.20
2018-07-11T08:20:58.334Z,24.40
2018-07-11T08:23:38.640Z,24.70
2018-07-11T08:28:22.486Z,24.90
2018-07-11T08:31:35.078Z,25.10
2018-07-11T08:38:22.674Z,25.30
2018-07-11T08:41:05.557Z,25.30
2018-07-11T08:43:45.102Z,25.70
2018-07-11T08:46:41.497Z,25.10
2018-07-11T08:49:21.679Z,25.10
2018-07-11T08:52:06.688Z,25.40
2018-07-11T08:58:49.145Z,26.10
2018-07-11T09:04:17.151Z,26.90
2018-07-11T09:07:03.422Z,26.80
2018-07-11T09:09:42.900Z,26.80
2018-07-11T09:12:29.165Z,26.40
2018-07-11T09:15:06.982Z,26.00
2018-07-11T09:18:45.968Z,25.30
2018-07-11T09:23:32.925Z,26.10
2018-07-11T09:26:01.324Z,27.00
2018-07-11T09:28:29.729Z,27.50
2018-07-11T09:33:26.336Z,27.80
2018-07-11T09:35:54.713Z,27.90
2018-07-11T09:38:23.178Z,28.10
2018-07-11T09:40:51.652Z,28.50
2018-07-11T09:43:20.177Z,28.70
2018-07-11T09:45:48.645Z,28.20
2018-07-11T09:48:17.173Z,27.40
2018-07-11T09:50:45.680Z,28.00
2018-07-11T09:53:14.222Z,28.40
2018-07-11T09:55:42.662Z,28.10
2018-07-11T09:58:11.217Z,26.70
2018-07-11T10:00:44.884Z,25.70
2018-07-11T10:03:13.400Z,26.20
2018-07-11T10:05:41.865Z,27.20
2018-07-11T10:08:10.863Z,27.90
2018-07-11T10:10:39.302Z,27.80
2018-07-11T10:13:07.674Z,28.20
2018-07-11T10:15:36.057Z,27.80
2018-07-11T10:18:04.504Z,26.90
2018-07-11T10:20:32.919Z,27.50
2018-07-11T10:23:01.298Z,28.30
2018-07-11T10:25:29.894Z,29.30
2018-07-11T10:28:09.649Z,29.20
2018-07-11T10:30:38.091Z,28.60
2018-07-11T10:33:06.578Z,27.60
2018-07-11T10:35:35.684Z,27.10
2018-07-11T10:38:04.141Z,27.30
2018-07-11T10:40:32.598Z,27.10
2018-07-11T10:43:01.184Z,26.90
2018-07-11T10:45:30.202Z,26.60
2018-07-11T10:47:58.713Z,26.90
2018-07-11T10:50:27.388Z,28.20
2018-07-11T10:52:55.858Z,28.20
2018-07-11T10:55:24.258Z,27.70
2018-07-11T10:57:52.743Z,27.60
2018-07-11T11:00:36.669Z,27.50
2018-07-11T11:02:58.070Z,27.70
2018-07-11T11:05:26.460Z,28.30
2018-07-11T11:07:54.939Z,28.10
2018-07-11T11:10:23.340Z,28.00
2018-07-11T11:12:51.726Z,27.80
2018-07-11T11:15:20.179Z,27.40
2018-07-11T11:17:48.654Z,27.00
2018-07-11T11:20:21.214Z,26.90
2018-07-11T11:22:49.706Z,26.90
2018-07-11T11:25:18.115Z,27.40
2018-07-11T11:27:46.521Z,27.60
2018-07-11T11:30:15.023Z,27.50
2018-07-11T11:32:43.445Z,27.00
2018-07-11T11:35:12.050Z,26.60
2018-07-11T11:37:40.552Z,26.30
2018-07-11T11:40:08.949Z,26.00
2018-07-11T11:42:37.513Z,25.90
2018-07-11T11:45:05.935Z,25.70
2018-07-11T11:47:34.314Z,25.60
2018-07-11T11:50:02.762Z,25.50
2018-07-11T11:52:31.290Z,25.50
2018-07-11T11:54:59.796Z,25.60
2018-07-11T11:59:56.377Z,25.70
2018-07-11T12:02:24.800Z,25.90
2018-07-11T12:04:53.251Z,26.80
2018-07-11T12:07:21.698Z,27.30
2018-07-11T12:09:50.168Z,27.80
2018-07-11T12:12:18.581Z,28.30
2018-07-11T12:14:47.028Z,28.80
2018-07-11T12:17:15.549Z,29.20
2018-07-11T12:19:44.805Z,28.30
2018-07-11T12:22:19.409Z,27.80
2018-07-11T12:24:47.966Z,27.70
2018-07-11T12:27:16.793Z,27.40
2018-07-11T12:29:45.342Z,27.10
2018-07-11T12:32:13.779Z,26.70
2018-07-11T12:34:42.241Z,26.50
2018-07-11T12:37:10.776Z,26.70
2018-07-11T12:39:39.263Z,26.80
2018-07-11T12:42:07.802Z,26.80
2018-07-11T12:44:36.266Z,27.00
2018-07-11T12:47:08.992Z,26.60
2018-07-11T12:49:38.170Z,26.50
2018-07-11T12:52:07.061Z,27.20
2018-07-11T12:54:35.713Z,28.10
2018-07-11T12:57:04.811Z,28.20
2018-07-11T12:59:33.297Z,28.30
2018-07-11T13:02:01.982Z,28.60
2018-07-11T13:04:30.447Z,28.60
2018-07-11T13:06:58.893Z,28.80
2018-07-11T13:09:27.580Z,29.00
2018-07-11T13:11:56.104Z,29.10
2018-07-11T13:14:24.589Z,29.10
2018-07-11T13:16:53.019Z,29.10
2018-07-11T13:19:21.874Z,28.20
2018-07-11T13:21:50.378Z,28.00
2018-07-11T13:24:18.788Z,28.20
2018-07-11T13:26:47.241Z,28.50
2018-07-11T13:29:15.799Z,28.60
2018-07-11T13:31:44.310Z,28.30
2018-07-11T13:34:12.752Z,28.00
2018-07-11T13:36:41.304Z,27.40
2018-07-11T13:39:18.120Z,26.90
2018-07-11T13:41:47.469Z,26.70
2018-07-11T13:44:18.922Z,26.50
2018-07-11T13:46:47.757Z,26.40
2018-07-11T13:49:16.392Z,26.40
2018-07-11T13:51:44.871Z,26.40
2018-07-11T13:54:13.346Z,26.30
2018-07-11T13:56:41.818Z,26.40
2018-07-11T13:59:10.244Z,26.40
2018-07-11T14:01:38.708Z,26.80
2018-07-11T14:04:07.137Z,27.10
2018-07-11T14:06:35.615Z,27.40
2018-07-11T14:09:04.846Z,27.80
2018-07-11T14:11:33.377Z,28.10
2018-07-11T14:14:01.921Z,27.30
2018-07-11T14:16:30.308Z,27.00
2018-07-11T14:18:58.817Z,26.60
2018-07-11T14:21:27.229Z,26.20
2018-07-11T14:23:55.724Z,25.80
2018-07-11T14:26:24.241Z,25.60
2018-07-11T14:28:53.876Z,25.60
2018-07-11T14:31:30.763Z,26.00
2018-07-11T14:34:03.633Z,26.20
2018-07-11T14:36:32.648Z,26.30
2018-07-11T14:39:01.158Z,26.20
2018-07-11T14:41:29.738Z,26.10
2018-07-11T14:43:58.569Z,26.00
2018-07-11T14:46:28.706Z,25.80
2018-07-11T14:48:57.205Z,25.50
2018-07-11T14:51:25.720Z,25.40
2018-07-11T14:53:55.625Z,25.00
2018-07-11T14:56:24.076Z,24.90
2018-07-11T15:01:22.372Z,24.70
2018-07-11T15:03:50.821Z,25.10
2018-07-11T15:06:19.269Z,25.10
2018-07-11T15:08:47.948Z,25.20
2018-07-11T15:11:16.394Z,25.30
2018-07-11T15:13:45.125Z,25.20
2018-07-11T15:16:13.577Z,25.20
2018-07-11T15:18:42.019Z,25.20
2018-07-11T15:21:10.470Z,25.10
2018-07-11T15:23:38.981Z,25.20
2018-07-11T15:26:07.393Z,24.90
2018-07-11T15:28:35.966Z,24.70
2018-07-11T15:31:04.564Z,24.50
2018-07-11T15:33:33.026Z,24.40
2018-07-11T15:36:01.570Z,24.60
2018-07-11T15:38:30.107Z,24.60
2018-07-11T15:41:00.265Z,24.70
2018-07-11T15:43:29.687Z,24.80
2018-07-11T15:45:58.758Z,24.80
2018-07-11T15:50:56.087Z,25.10
2018-07-11T15:53:24.599Z,25.30
2018-07-11T15:55:54.051Z,25.50
2018-07-11T15:58:24.848Z,25.80
2018-07-11T16:00:53.289Z,25.50
2018-07-11T16:03:21.762Z,25.40
2018-07-11T16:05:50.321Z,25.30
2018-07-11T16:08:20.547Z,25.20
2018-07-11T16:10:51.264Z,25.10
2018-07-11T16:13:19.758Z,25.00
2018-07-11T16:15:48.268Z,25.00
2018-07-11T16:18:16.717Z,24.80
2018-07-11T16:20:45.176Z,24.60
2018-07-11T16:23:14.123Z,24.60
2018-07-11T16:25:43.767Z,24.70
2018-07-11T16:28:12.344Z,24.90
2018-07-11T16:30:40.848Z,25.00
2018-07-11T16:33:09.309Z,25.10
2018-07-11T16:35:37.798Z,24.90
2018-07-11T16:38:06.275Z,24.70
2018-07-11T16:40:35.349Z,24.70
2018-07-11T16:43:03.922Z,24.60
2018-07-11T16:45:32.442Z,24.70
2018-07-11T16:48:01.139Z,24.50
2018-07-11T16:50:29.661Z,24.60
2018-07-11T16:52:58.341Z,24.70
2018-07-11T16:55:27.137Z,24.60
2018-07-11T16:57:56.167Z,24.70
2018-07-11T17:00:29.501Z,24.60
2018-07-11T17:05:31.442Z,24.70
2018-07-11T17:08:00.387Z,24.70
2018-07-11T17:10:29.958Z,24.50
2018-07-11T17:13:09.939Z,24.30
2018-07-11T17:15:39.090Z,24.30
2018-07-11T17:18:07.913Z,24.30
2018-07-11T17:20:36.448Z,24.20
2018-07-11T17:23:06.858Z,24.00
2018-07-11T17:25:41.585Z,23.90
2018-07-11T17:30:43.449Z,23.80
2018-07-11T17:33:12.979Z,23.90
2018-07-11T17:35:48.517Z,23.90
2018-07-11T17:38:17.180Z,23.90
2018-07-11T17:40:47.668Z,23.90
2018-07-11T17:43:17.716Z,24.00
2018-07-11T17:45:46.247Z,24.00
2018-07-11T17:48:25.401Z,23.90
2018-07-11T17:50:59.930Z,23.70
2018-07-11T17:53:31.367Z,23.70
2018-07-11T17:56:12.530Z,23.60
2018-07-11T17:58:56.352Z,23.60
2018-07-11T18:01:34.850Z,23.40
2018-07-11T18:04:12.842Z,23.30
2018-07-11T18:06:50.291Z,23.30
2018-07-11T18:11:56.176Z,23.40
2018-07-11T18:14:48.493Z,23.40
2018-07-11T18:17:29.275Z,23.30
2018-07-11T18:22:10.943Z,23.30
2018-07-11T18:24:48.192Z,23.20
2018-07-11T18:27:26.511Z,23.00
2018-07-11T18:30:18.861Z,22.80
2018-07-11T18:33:00.921Z,22.80
2018-07-11T18:37:41.932Z,22.70
2018-07-11T18:40:20.009Z,22.70
2018-07-11T18:43:05.822Z,22.70
2018-07-11T18:45:43.929Z,22.60
2018-07-11T18:49:18.230Z,22.60
2018-07-11T18:53:58.496Z,22.60
2018-07-11T18:56:39.849Z,22.60
2018-07-11T19:00:49.469Z,22.30
2018-07-11T19:05:58.512Z,22.40
2018-07-11T19:09:06.436Z,22.30
2018-07-11T19:11:43.793Z,22.20
2018-07-11T19:14:21.029Z,22.30
2018-07-11T19:17:14.475Z,22.30
2018-07-11T19:21:51.461Z,22.30
2018-07-11T19:30:03.661Z,22.20
2018-07-11T19:32:38.483Z,22.10
2018-07-11T19:36:20.016Z,22.00
2018-07-11T19:39:04.693Z,22.00
2018-07-11T19:41:56.054Z,22.00
2018-07-11T19:44:49.090Z,22.00
2018-07-11T19:47:27.996Z,22.10
2018-07-11T19:50:04.496Z,22.10
2018-07-11T19:52:57.091Z,22.10
2018-07-11T19:55:39.226Z,22.00
2018-07-11T19:58:07.805Z,22.00
2018-07-11T20:00:36.206Z,22.00
2018-07-11T20:03:04.643Z,21.90
2018-07-11T20:05:33.246Z,21.80
2018-07-11T20:08:01.843Z,21.90
2018-07-11T20:12:58.437Z,21.80
2018-07-11T20:15:26.986Z,21.60
2018-07-11T20:17:55.341Z,21.60
2018-07-11T20:20:23.801Z,21.50
2018-07-11T20:22:52.630Z,21.50
2018-07-11T20:25:21.109Z,21.50
2018-07-11T20:30:18.094Z,21.40
2018-07-11T20:32:46.562Z,21.30
2018-07-11T20:35:14.938Z,21.20
2018-07-11T20:40:11.490Z,21.10
2018-07-11T20:42:39.952Z,21.00
2018-07-11T20:45:08.423Z,21.00
2018-07-11T20:47:36.876Z,21.00
2018-07-11T20:50:05.278Z,21.00
2018-07-11T20:52:33.708Z,20.90
2018-07-11T20:55:02.211Z,21.00
2018-07-11T20:57:30.635Z,20.90
2018-07-11T21:00:10.147Z,20.80
2018-07-11T21:03:03.881Z,20.80
2018-07-11T21:06:46.181Z,20.80
2018-07-11T21:09:26.071Z,20.80
2018-07-11T21:12:03.820Z,20.70
2018-07-11T21:16:46.415Z,20.60
2018-07-11T21:19:14.881Z,20.60
2018-07-11T21:21:43.851Z,20.60
2018-07-11T21:24:13.033Z,20.50
2018-07-11T21:26:41.541Z,20.50
2018-07-11T21:29:10.204Z,20.60
2018-07-11T21:31:38.579Z,20.50
2018-07-11T21:34:07.041Z,20.40
2018-07-11T21:36:35.455Z,20.50
2018-07-11T21:39:04.850Z,20.40
2018-07-11T21:41:33.304Z,20.40
2018-07-11T21:44:01.735Z,20.40
2018-07-11T21:46:30.202Z,20.40
2018-07-11T21:48:58.751Z,20.30
2018-07-11T21:51:27.158Z,20.30
2018-07-11T21:53:55.568Z,20.30
2018-07-11T21:56:24.061Z,20.30
2018-07-11T21:58:52.509Z,20.40
2018-07-11T22:01:20.991Z,20.40
2018-07-11T22:03:49.390Z,20.30
2018-07-11T22:06:17.847Z,20.30
2018-07-11T22:08:46.325Z,20.40
2018-07-11T22:11:14.778Z,20.30
2018-07-11T22:13:43.169Z,20.30
2018-07-11T22:16:11.608Z,20.30
2018-07-11T22:18:43.162Z,20.20
2018-07-11T22:21:11.259Z,20.10
2018-07-11T22:23:38.634Z,20.10
2018-07-11T22:26:05.950Z,20.10
2018-07-11T22:28:33.265Z,20.00
2018-07-11T22:31:00.646Z,20.00
2018-07-11T22:33:27.946Z,19.90
2018-07-11T22:35:55.279Z,19.90
2018-07-11T22:38:22.560Z,20.00
2018-07-11T22:40:49.882Z,20.00
2018-07-11T22:43:17.261Z,19.90
2018-07-11T22:45:44.562Z,19.90
2018-07-11T22:48:11.882Z,19.90
2018-07-11T22:50:39.218Z,19.90
2018-07-11T22:53:06.525Z,19.80
2018-07-11T22:55:33.850Z,19.70
2018-07-11T22:58:01.144Z,19.70
2018-07-11T23:00:28.441Z,19.70
2018-07-11T23:02:55.742Z,19.80
2018-07-11T23:05:23.049Z,19.80
2018-07-11T23:07:50.357Z,19.70
2018-07-11T23:10:17.677Z,19.70
2018-07-11T23:12:45.018Z,19.70
2018-07-11T23:15:12.322Z,19.50
2018-07-11T23:17:39.617Z,19.50
2018-07-11T23:20:06.957Z,19.40
2018-07-11T23:22:34.303Z,19.50
2018-07-11T23:25:01.635Z,19.50
2018-07-11T23:27:29.042Z,19.40
2018-07-11T23:29:56.394Z,19.50
2018-07-11T23:32:23.726Z,19.30
2018-07-11T23:34:51.075Z,19.40
2018-07-11T23:37:18.395Z,19.40
2018-07-11T23:39:45.697Z,19.30
2018-07-11T23:42:13.002Z,19.30
2018-07-11T23:44:40.309Z,19.30
2018-07-11T23:47:07.595Z,19.30
2018-07-11T23:49:34.929Z,19.20
2018-07-11T23:52:02.261Z,19.20
2018-07-11T23:54:29.546Z,19.20
2018-07-11T23:56:56.933Z,19.10
2018-07-11T23:59:24.246Z,19.10
